sensor_id;sensor_type;location;lat;lon;timestamp;P1;durP1;ratioP1;P2;durP2;ratioP2
35084;SDS011;21267;51.032;6.998;2023-04-16T00:01:38;69.90;;;47.55;;
35084;SDS011;21267;51.032;6.998;2023-04-16T00:04:05;71.63;;;46.17;;
35084;SDS011;21267;51.032;6.998;2023-04-16T00:06:32;66.23;;;43.27;;
35084;SDS011;21267;51.032;6.998;2023-04-16T00:08:59;63.70;;;43.28;;
35084;SDS011;21267;51.032;6.998;2023-04-16T00:11:26;63.90;;;41.72;;
35084;SDS011;21267;51.032;6.998;2023-04-16T00:13:53;59.17;;;41.83;;
35084;SDS011;21267;51.032;6.998;2023-04-16T00:16:19;55.08;;;40.88;;
35084;SDS011;21267;51.032;6.998;2023-04-16T00:18:46;60.15;;;40.00;;
35084;SDS011;21267;51.032;6.998;2023-04-16T00:21:13;62.70;;;43.15;;
35084;SDS011;21267;51.032;6.998;2023-04-16T00:23:40;63.65;;;42.22;;
35084;SDS011;21267;51.032;6.998;2023-04-16T00:26:07;61.03;;;41.45;;
35084;SDS011;21267;51.032;6.998;2023-04-16T00:28:34;64.97;;;43.00;;
35084;SDS011;21267;51.032;6.998;2023-04-16T00:31:01;66.90;;;43.53;;
35084;SDS011;21267;51.032;6.998;2023-04-16T00:33:28;66.67;;;44.80;;
35084;SDS011;21267;51.032;6.998;2023-04-16T00:35:55;67.35;;;46.67;;
35084;SDS011;21267;51.032;6.998;2023-04-16T00:38:22;62.85;;;40.53;;
35084;SDS011;21267;51.032;6.998;2023-04-16T00:40:49;46.80;;;31.43;;
35084;SDS011;21267;51.032;6.998;2023-04-16T00:43:22;55.90;;;36.38;;
35084;SDS011;21267;51.032;6.998;2023-04-16T00:45:51;56.13;;;32.72;;
35084;SDS011;21267;51.032;6.998;2023-04-16T00:48:19;53.30;;;32.35;;
35084;SDS011;21267;51.032;6.998;2023-04-16T00:50:46;47.67;;;27.43;;
35084;SDS011;21267;51.032;6.998;2023-04-16T00:53:13;50.97;;;30.92;;
35084;SDS011;21267;51.032;6.998;2023-04-16T00:55:41;50.90;;;30.70;;
35084;SDS011;21267;51.032;6.998;2023-04-16T00:58:09;48.15;;;30.60;;
35084;SDS011;21267;51.032;6.998;2023-04-16T01:00:36;53.40;;;31.10;;
35084;SDS011;21267;51.032;6.998;2023-04-16T01:03:03;41.97;;;27.55;;
35084;SDS011;21267;51.032;6.998;2023-04-16T01:05:31;75.00;;;40.53;;
35084;SDS011;21267;51.032;6.998;2023-04-16T01:07:58;66.28;;;38.97;;
35084;SDS011;21267;51.032;6.998;2023-04-16T01:10:28;66.57;;;41.13;;
35084;SDS011;21267;51.032;6.998;2023-04-16T01:12:55;70.00;;;42.30;;
35084;SDS011;21267;51.032;6.998;2023-04-16T01:15:22;72.97;;;43.50;;
35084;SDS011;21267;51.032;6.998;2023-04-16T01:17:49;72.73;;;45.00;;
35084;SDS011;21267;51.032;6.998;2023-04-16T01:20:16;81.00;;;42.97;;
35084;SDS011;21267;51.032;6.998;2023-04-16T01:22:43;78.70;;;47.90;;
35084;SDS011;21267;51.032;6.998;2023-04-16T01:25:12;83.45;;;48.40;;
35084;SDS011;21267;51.032;6.998;2023-04-16T01:27:41;81.15;;;47.20;;
35084;SDS011;21267;51.032;6.998;2023-04-16T01:30:08;79.22;;;46.10;;
35084;SDS011;21267;51.032;6.998;2023-04-16T01:32:35;79.90;;;46.57;;
35084;SDS011;21267;51.032;6.998;2023-04-16T01:35:02;81.82;;;50.17;;
35084;SDS011;21267;51.032;6.998;2023-04-16T01:37:29;85.73;;;49.67;;
35084;SDS011;21267;51.032;6.998;2023-04-16T01:39:56;76.03;;;42.42;;
35084;SDS011;21267;51.032;6.998;2023-04-16T01:42:23;77.85;;;48.15;;
35084;SDS011;21267;51.032;6.998;2023-04-16T01:44:50;78.90;;;46.67;;
35084;SDS011;21267;51.032;6.998;2023-04-16T01:47:17;83.78;;;51.20;;
35084;SDS011;21267;51.032;6.998;2023-04-16T01:49:43;83.60;;;49.10;;
35084;SDS011;21267;51.032;6.998;2023-04-16T01:52:13;81.20;;;49.33;;
35084;SDS011;21267;51.032;6.998;2023-04-16T01:54:40;89.18;;;51.03;;
35084;SDS011;21267;51.032;6.998;2023-04-16T01:57:07;86.50;;;50.67;;
35084;SDS011;21267;51.032;6.998;2023-04-16T01:59:34;78.28;;;48.10;;
35084;SDS011;21267;51.032;6.998;2023-04-16T02:02:11;80.63;;;47.17;;
35084;SDS011;21267;51.032;6.998;2023-04-16T02:04:39;68.68;;;40.22;;
35084;SDS011;21267;51.032;6.998;2023-04-16T02:07:07;65.28;;;40.10;;
35084;SDS011;21267;51.032;6.998;2023-04-16T02:09:34;69.50;;;40.30;;
35084;SDS011;21267;51.032;6.998;2023-04-16T02:12:06;58.50;;;36.97;;
35084;SDS011;21267;51.032;6.998;2023-04-16T02:14:33;55.63;;;31.63;;
35084;SDS011;21267;51.032;6.998;2023-04-16T02:16:59;63.03;;;32.40;;
35084;SDS011;21267;51.032;6.998;2023-04-16T02:19:26;57.97;;;32.10;;
35084;SDS011;21267;51.032;6.998;2023-04-16T02:21:53;58.63;;;35.58;;
35084;SDS011;21267;51.032;6.998;2023-04-16T02:24:20;61.97;;;34.20;;
35084;SDS011;21267;51.032;6.998;2023-04-16T02:26:47;57.87;;;31.87;;
35084;SDS011;21267;51.032;6.998;2023-04-16T02:29:14;50.47;;;28.02;;
35084;SDS011;21267;51.032;6.998;2023-04-16T02:31:41;49.47;;;26.23;;
35084;SDS011;21267;51.032;6.998;2023-04-16T02:34:08;63.55;;;32.00;;
35084;SDS011;21267;51.032;6.998;2023-04-16T02:36:35;51.63;;;30.05;;
35084;SDS011;21267;51.032;6.998;2023-04-16T02:39:02;51.90;;;28.17;;
35084;SDS011;21267;51.032;6.998;2023-04-16T02:41:29;48.40;;;30.53;;
35084;SDS011;21267;51.032;6.998;2023-04-16T02:43:56;49.38;;;30.05;;
35084;SDS011;21267;51.032;6.998;2023-04-16T02:46:23;49.22;;;29.98;;
35084;SDS011;21267;51.032;6.998;2023-04-16T02:48:50;51.50;;;30.90;;
35084;SDS011;21267;51.032;6.998;2023-04-16T02:51:16;47.45;;;29.52;;
35084;SDS011;21267;51.032;6.998;2023-04-16T02:53:43;57.97;;;32.13;;
35084;SDS011;21267;51.032;6.998;2023-04-16T02:56:11;56.22;;;30.55;;
35084;SDS011;21267;51.032;6.998;2023-04-16T02:58:38;54.93;;;32.27;;
35084;SDS011;21267;51.032;6.998;2023-04-16T03:01:05;53.65;;;31.38;;
35084;SDS011;21267;51.032;6.998;2023-04-16T03:03:31;56.47;;;32.03;;
35084;SDS011;21267;51.032;6.998;2023-04-16T03:05:58;61.75;;;34.03;;
35084;SDS011;21267;51.032;6.998;2023-04-16T03:08:25;57.90;;;32.63;;
35084;SDS011;21267;51.032;6.998;2023-04-16T03:10:53;67.03;;;34.35;;
35084;SDS011;21267;51.032;6.998;2023-04-16T03:13:19;64.90;;;35.05;;
35084;SDS011;21267;51.032;6.998;2023-04-16T03:15:47;67.82;;;36.08;;
35084;SDS011;21267;51.032;6.998;2023-04-16T03:18:15;71.47;;;39.78;;
35084;SDS011;21267;51.032;6.998;2023-04-16T03:20:41;66.35;;;39.45;;
35084;SDS011;21267;51.032;6.998;2023-04-16T03:23:08;73.07;;;38.42;;
35084;SDS011;21267;51.032;6.998;2023-04-16T03:25:35;72.87;;;40.93;;
35084;SDS011;21267;51.032;6.998;2023-04-16T03:28:02;80.10;;;42.60;;
35084;SDS011;21267;51.032;6.998;2023-04-16T03:30:29;73.70;;;43.00;;
35084;SDS011;21267;51.032;6.998;2023-04-16T03:32:56;63.57;;;33.03;;
35084;SDS011;21267;51.032;6.998;2023-04-16T03:35:23;86.05;;;43.60;;
35084;SDS011;21267;51.032;6.998;2023-04-16T03:37:51;85.55;;;46.28;;
35084;SDS011;21267;51.032;6.998;2023-04-16T03:40:18;91.63;;;44.38;;
35084;SDS011;21267;51.032;6.998;2023-04-16T03:42:44;87.82;;;46.72;;
35084;SDS011;21267;51.032;6.998;2023-04-16T03:45:11;84.47;;;46.27;;
35084;SDS011;21267;51.032;6.998;2023-04-16T03:47:38;96.50;;;50.53;;
35084;SDS011;21267;51.032;6.998;2023-04-16T03:50:05;89.65;;;46.38;;
35084;SDS011;21267;51.032;6.998;2023-04-16T03:52:33;99.25;;;49.45;;
35084;SDS011;21267;51.032;6.998;2023-04-16T03:54:59;95.43;;;51.00;;
35084;SDS011;21267;51.032;6.998;2023-04-16T03:57:29;91.07;;;47.60;;
35084;SDS011;21267;51.032;6.998;2023-04-16T03:59:55;88.78;;;50.13;;
35084;SDS011;21267;51.032;6.998;2023-04-16T04:02:22;98.88;;;50.83;;
35084;SDS011;21267;51.032;6.998;2023-04-16T04:04:49;101.33;;;51.03;;
35084;SDS011;21267;51.032;6.998;2023-04-16T04:07:16;93.63;;;48.08;;
35084;SDS011;21267;51.032;6.998;2023-04-16T04:09:43;97.55;;;51.90;;
35084;SDS011;21267;51.032;6.998;2023-04-16T04:12:10;98.03;;;50.50;;
35084;SDS011;21267;51.032;6.998;2023-04-16T04:14:36;93.03;;;49.78;;
35084;SDS011;21267;51.032;6.998;2023-04-16T04:17:05;94.93;;;49.67;;
35084;SDS011;21267;51.032;6.998;2023-04-16T04:19:37;91.97;;;47.33;;
35084;SDS011;21267;51.032;6.998;2023-04-16T04:22:12;97.40;;;50.30;;
35084;SDS011;21267;51.032;6.998;2023-04-16T04:24:39;96.45;;;49.72;;
35084;SDS011;21267;51.032;6.998;2023-04-16T04:27:05;95.63;;;49.05;;
35084;SDS011;21267;51.032;6.998;2023-04-16T04:29:32;105.13;;;48.70;;
35084;SDS011;21267;51.032;6.998;2023-04-16T04:31:59;95.18;;;49.35;;
35084;SDS011;21267;51.032;6.998;2023-04-16T04:34:27;98.53;;;48.72;;
35084;SDS011;21267;51.032;6.998;2023-04-16T04:36:54;87.40;;;48.40;;
35084;SDS011;21267;51.032;6.998;2023-04-16T04:39:21;93.80;;;49.53;;
35084;SDS011;21267;51.032;6.998;2023-04-16T04:41:47;98.38;;;47.60;;
35084;SDS011;21267;51.032;6.998;2023-04-16T04:44:14;84.32;;;48.10;;
35084;SDS011;21267;51.032;6.998;2023-04-16T04:46:41;93.97;;;49.10;;
35084;SDS011;21267;51.032;6.998;2023-04-16T04:49:08;88.78;;;45.40;;
35084;SDS011;21267;51.032;6.998;2023-04-16T04:51:35;87.03;;;46.10;;
35084;SDS011;21267;51.032;6.998;2023-04-16T04:54:02;102.53;;;47.88;;
35084;SDS011;21267;51.032;6.998;2023-04-16T04:56:29;89.82;;;43.97;;
35084;SDS011;21267;51.032;6.998;2023-04-16T04:58:56;89.78;;;46.33;;
35084;SDS011;21267;51.032;6.998;2023-04-16T05:01:23;87.32;;;47.92;;
35084;SDS011;21267;51.032;6.998;2023-04-16T05:03:50;88.40;;;47.53;;
35084;SDS011;21267;51.032;6.998;2023-04-16T05:06:17;81.18;;;43.85;;
35084;SDS011;21267;51.032;6.998;2023-04-16T05:08:43;80.55;;;44.72;;
35084;SDS011;21267;51.032;6.998;2023-04-16T05:11:10;88.22;;;46.83;;
35084;SDS011;21267;51.032;6.998;2023-04-16T05:13:37;87.28;;;47.38;;
35084;SDS011;21267;51.032;6.998;2023-04-16T05:16:04;91.53;;;46.77;;
35084;SDS011;21267;51.032;6.998;2023-04-16T05:18:32;88.80;;;47.15;;
35084;SDS011;21267;51.032;6.998;2023-04-16T05:20:58;86.68;;;46.72;;
35084;SDS011;21267;51.032;6.998;2023-04-16T05:23:25;81.68;;;47.47;;
35084;SDS011;21267;51.032;6.998;2023-04-16T05:25:52;82.13;;;47.35;;
35084;SDS011;21267;51.032;6.998;2023-04-16T05:28:19;82.72;;;44.05;;
35084;SDS011;21267;51.032;6.998;2023-04-16T05:30:45;86.65;;;46.03;;
35084;SDS011;21267;51.032;6.998;2023-04-16T05:33:12;87.72;;;47.85;;
35084;SDS011;21267;51.032;6.998;2023-04-16T05:35:40;84.78;;;47.58;;
35084;SDS011;21267;51.032;6.998;2023-04-16T05:38:07;86.57;;;47.15;;
35084;SDS011;21267;51.032;6.998;2023-04-16T05:40:33;86.32;;;43.13;;
35084;SDS011;21267;51.032;6.998;2023-04-16T05:43:09;79.97;;;41.88;;
35084;SDS011;21267;51.032;6.998;2023-04-16T05:45:36;81.22;;;47.45;;
35084;SDS011;21267;51.032;6.998;2023-04-16T05:48:06;88.15;;;48.08;;
35084;SDS011;21267;51.032;6.998;2023-04-16T05:50:36;86.90;;;46.70;;
35084;SDS011;21267;51.032;6.998;2023-04-16T05:53:07;91.38;;;46.40;;
35084;SDS011;21267;51.032;6.998;2023-04-16T05:55:34;78.18;;;45.25;;
35084;SDS011;21267;51.032;6.998;2023-04-16T05:58:04;83.13;;;45.95;;
35084;SDS011;21267;51.032;6.998;2023-04-16T06:00:31;78.40;;;42.72;;
35084;SDS011;21267;51.032;6.998;2023-04-16T06:02:58;84.88;;;43.22;;
35084;SDS011;21267;51.032;6.998;2023-04-16T06:05:26;79.65;;;44.47;;
35084;SDS011;21267;51.032;6.998;2023-04-16T06:07:53;86.70;;;46.83;;
35084;SDS011;21267;51.032;6.998;2023-04-16T06:10:21;84.10;;;44.97;;
35084;SDS011;21267;51.032;6.998;2023-04-16T06:12:51;83.20;;;45.75;;
35084;SDS011;21267;51.032;6.998;2023-04-16T06:15:17;75.70;;;45.00;;
35084;SDS011;21267;51.032;6.998;2023-04-16T06:17:44;78.18;;;41.80;;
35084;SDS011;21267;51.032;6.998;2023-04-16T06:20:11;78.72;;;43.90;;
35084;SDS011;21267;51.032;6.998;2023-04-16T06:22:38;74.00;;;36.93;;
35084;SDS011;21267;51.032;6.998;2023-04-16T06:25:06;70.43;;;37.50;;
35084;SDS011;21267;51.032;6.998;2023-04-16T06:27:33;64.20;;;38.17;;
35084;SDS011;21267;51.032;6.998;2023-04-16T06:33:38;67.63;;;39.83;;
35084;SDS011;21267;51.032;6.998;2023-04-16T06:36:04;71.15;;;39.05;;
35084;SDS011;21267;51.032;6.998;2023-04-16T06:38:31;65.30;;;39.17;;
35084;SDS011;21267;51.032;6.998;2023-04-16T06:41:12;64.03;;;39.13;;
35084;SDS011;21267;51.032;6.998;2023-04-16T06:43:39;66.97;;;37.93;;
35084;SDS011;21267;51.032;6.998;2023-04-16T06:46:20;65.55;;;37.22;;
35084;SDS011;21267;51.032;6.998;2023-04-16T06:48:49;51.65;;;33.67;;
35084;SDS011;21267;51.032;6.998;2023-04-16T06:51:29;56.47;;;34.00;;
35084;SDS011;21267;51.032;6.998;2023-04-16T06:53:56;52.90;;;33.10;;
35084;SDS011;21267;51.032;6.998;2023-04-16T06:56:36;52.85;;;31.25;;
35084;SDS011;21267;51.032;6.998;2023-04-16T06:59:03;45.13;;;27.77;;
35084;SDS011;21267;51.032;6.998;2023-04-16T07:01:30;47.25;;;30.65;;
35084;SDS011;21267;51.032;6.998;2023-04-16T07:03:59;49.58;;;29.25;;
35084;SDS011;21267;51.032;6.998;2023-04-16T07:06:26;49.17;;;29.03;;
35084;SDS011;21267;51.032;6.998;2023-04-16T07:08:53;48.37;;;29.33;;
35084;SDS011;21267;51.032;6.998;2023-04-16T07:11:19;50.05;;;29.70;;
35084;SDS011;21267;51.032;6.998;2023-04-16T07:13:46;48.97;;;28.65;;
35084;SDS011;21267;51.032;6.998;2023-04-16T07:16:13;41.13;;;27.13;;
35084;SDS011;21267;51.032;6.998;2023-04-16T07:18:40;46.05;;;30.88;;
35084;SDS011;21267;51.032;6.998;2023-04-16T07:21:06;42.75;;;28.30;;
35084;SDS011;21267;51.032;6.998;2023-04-16T07:23:33;48.63;;;28.98;;
35084;SDS011;21267;51.032;6.998;2023-04-16T07:25:59;50.58;;;29.27;;
35084;SDS011;21267;51.032;6.998;2023-04-16T07:28:26;44.50;;;28.83;;
35084;SDS011;21267;51.032;6.998;2023-04-16T07:30:53;42.28;;;28.00;;
35084;SDS011;21267;51.032;6.998;2023-04-16T07:33:19;40.47;;;25.98;;
35084;SDS011;21267;51.032;6.998;2023-04-16T07:35:46;39.50;;;26.35;;
35084;SDS011;21267;51.032;6.998;2023-04-16T07:38:13;46.08;;;27.58;;
35084;SDS011;21267;51.032;6.998;2023-04-16T07:40:40;42.50;;;26.27;;
35084;SDS011;21267;51.032;6.998;2023-04-16T07:43:06;38.50;;;25.98;;
35084;SDS011;21267;51.032;6.998;2023-04-16T07:45:33;37.58;;;25.40;;
35084;SDS011;21267;51.032;6.998;2023-04-16T07:48:00;42.80;;;26.15;;
35084;SDS011;21267;51.032;6.998;2023-04-16T07:50:27;41.53;;;25.98;;
35084;SDS011;21267;51.032;6.998;2023-04-16T07:52:55;38.30;;;24.67;;
35084;SDS011;21267;51.032;6.998;2023-04-16T07:55:21;39.55;;;26.30;;
35084;SDS011;21267;51.032;6.998;2023-04-16T07:57:48;41.67;;;26.60;;
35084;SDS011;21267;51.032;6.998;2023-04-16T08:00:14;34.20;;;23.52;;
35084;SDS011;21267;51.032;6.998;2023-04-16T08:02:41;40.05;;;25.27;;
35084;SDS011;21267;51.032;6.998;2023-04-16T08:05:09;34.78;;;22.83;;
35084;SDS011;21267;51.032;6.998;2023-04-16T08:07:37;33.13;;;23.80;;
35084;SDS011;21267;51.032;6.998;2023-04-16T08:10:04;36.38;;;25.15;;
35084;SDS011;21267;51.032;6.998;2023-04-16T08:12:31;35.30;;;22.40;;
35084;SDS011;21267;51.032;6.998;2023-04-16T08:14:58;33.72;;;23.55;;
35084;SDS011;21267;51.032;6.998;2023-04-16T08:17:24;36.08;;;23.73;;
35084;SDS011;21267;51.032;6.998;2023-04-16T08:19:51;36.67;;;24.65;;
35084;SDS011;21267;51.032;6.998;2023-04-16T08:22:18;35.40;;;24.60;;
35084;SDS011;21267;51.032;6.998;2023-04-16T08:24:44;33.80;;;24.17;;
35084;SDS011;21267;51.032;6.998;2023-04-16T08:27:11;36.28;;;25.17;;
35084;SDS011;21267;51.032;6.998;2023-04-16T08:29:44;35.15;;;24.75;;
35084;SDS011;21267;51.032;6.998;2023-04-16T08:32:11;35.47;;;24.50;;
35084;SDS011;21267;51.032;6.998;2023-04-16T08:34:38;35.58;;;24.23;;
35084;SDS011;21267;51.032;6.998;2023-04-16T08:37:04;35.58;;;25.30;;
35084;SDS011;21267;51.032;6.998;2023-04-16T08:39:31;34.60;;;24.15;;
35084;SDS011;21267;51.032;6.998;2023-04-16T08:41:58;33.38;;;24.63;;
35084;SDS011;21267;51.032;6.998;2023-04-16T08:44:33;35.53;;;23.35;;
35084;SDS011;21267;51.032;6.998;2023-04-16T08:47:02;32.83;;;22.33;;
35084;SDS011;21267;51.032;6.998;2023-04-16T08:49:32;28.00;;;19.70;;
35084;SDS011;21267;51.032;6.998;2023-04-16T08:52:02;33.22;;;24.58;;
35084;SDS011;21267;51.032;6.998;2023-04-16T08:57:28;31.05;;;23.02;;
35084;SDS011;21267;51.032;6.998;2023-04-16T09:00:00;32.00;;;24.10;;
35084;SDS011;21267;51.032;6.998;2023-04-16T09:02:27;32.53;;;23.93;;
35084;SDS011;21267;51.032;6.998;2023-04-16T09:04:57;32.88;;;24.73;;
35084;SDS011;21267;51.032;6.998;2023-04-16T09:07:26;32.55;;;24.15;;
35084;SDS011;21267;51.032;6.998;2023-04-16T09:09:54;30.40;;;23.83;;
35084;SDS011;21267;51.032;6.998;2023-04-16T09:12:24;29.75;;;23.35;;
35084;SDS011;21267;51.032;6.998;2023-04-16T09:14:55;33.25;;;24.38;;
35084;SDS011;21267;51.032;6.998;2023-04-16T09:17:22;35.13;;;24.48;;
35084;SDS011;21267;51.032;6.998;2023-04-16T09:19:50;31.17;;;24.15;;
35084;SDS011;21267;51.032;6.998;2023-04-16T09:22:17;29.90;;;23.50;;
35084;SDS011;21267;51.032;6.998;2023-04-16T09:24:43;29.98;;;22.55;;
35084;SDS011;21267;51.032;6.998;2023-04-16T09:27:11;26.83;;;22.20;;
35084;SDS011;21267;51.032;6.998;2023-04-16T09:29:39;28.60;;;23.67;;
35084;SDS011;21267;51.032;6.998;2023-04-16T09:32:07;31.02;;;23.30;;
35084;SDS011;21267;51.032;6.998;2023-04-16T09:34:52;28.00;;;23.05;;
35084;SDS011;21267;51.032;6.998;2023-04-16T09:37:20;32.83;;;24.10;;
35084;SDS011;21267;51.032;6.998;2023-04-16T09:40:00;29.58;;;23.92;;
35084;SDS011;21267;51.032;6.998;2023-04-16T09:42:29;34.50;;;25.63;;
35084;SDS011;21267;51.032;6.998;2023-04-16T09:44:58;30.30;;;23.63;;
35084;SDS011;21267;51.032;6.998;2023-04-16T09:47:38;30.60;;;23.67;;
35084;SDS011;21267;51.032;6.998;2023-04-16T09:50:07;29.65;;;22.60;;
35084;SDS011;21267;51.032;6.998;2023-04-16T09:52:37;31.98;;;24.35;;
35084;SDS011;21267;51.032;6.998;2023-04-16T09:55:04;35.25;;;24.05;;
35084;SDS011;21267;51.032;6.998;2023-04-16T09:57:31;28.40;;;22.83;;
35084;SDS011;21267;51.032;6.998;2023-04-16T10:00:02;30.10;;;22.33;;
35084;SDS011;21267;51.032;6.998;2023-04-16T10:02:30;28.42;;;23.30;;
35084;SDS011;21267;51.032;6.998;2023-04-16T10:04:59;27.85;;;22.35;;
35084;SDS011;21267;51.032;6.998;2023-04-16T10:07:28;28.83;;;22.08;;
35084;SDS011;21267;51.032;6.998;2023-04-16T10:09:56;29.98;;;22.77;;
35084;SDS011;21267;51.032;6.998;2023-04-16T10:12:24;28.00;;;22.25;;
35084;SDS011;21267;51.032;6.998;2023-04-16T10:14:53;27.27;;;23.17;;
35084;SDS011;21267;51.032;6.998;2023-04-16T10:19:49;26.52;;;22.33;;
35084;SDS011;21267;51.032;6.998;2023-04-16T10:22:16;29.80;;;22.15;;
35084;SDS011;21267;51.032;6.998;2023-04-16T10:24:43;25.13;;;19.10;;
35084;SDS011;21267;51.032;6.998;2023-04-16T10:27:12;27.35;;;21.35;;
35084;SDS011;21267;51.032;6.998;2023-04-16T10:29:41;24.92;;;19.73;;
35084;SDS011;21267;51.032;6.998;2023-04-16T10:32:09;28.80;;;22.98;;
35084;SDS011;21267;51.032;6.998;2023-04-16T10:34:37;30.00;;;22.63;;
35084;SDS011;21267;51.032;6.998;2023-04-16T10:37:04;32.90;;;23.33;;
35084;SDS011;21267;51.032;6.998;2023-04-16T10:39:31;30.85;;;22.75;;
35084;SDS011;21267;51.032;6.998;2023-04-16T10:42:06;30.33;;;24.58;;
35084;SDS011;21267;51.032;6.998;2023-04-16T10:44:34;23.30;;;19.13;;
35084;SDS011;21267;51.032;6.998;2023-04-16T10:47:02;29.10;;;22.70;;
35084;SDS011;21267;51.032;6.998;2023-04-16T10:49:38;28.75;;;23.67;;
35084;SDS011;21267;51.032;6.998;2023-04-16T10:54:37;24.85;;;21.35;;
35084;SDS011;21267;51.032;6.998;2023-04-16T10:57:06;25.63;;;21.75;;
35084;SDS011;21267;51.032;6.998;2023-04-16T10:59:35;28.60;;;23.80;;
35084;SDS011;21267;51.032;6.998;2023-04-16T11:02:07;27.35;;;22.77;;
35084;SDS011;21267;51.032;6.998;2023-04-16T11:04:39;25.20;;;21.88;;
35084;SDS011;21267;51.032;6.998;2023-04-16T11:12:42;28.40;;;23.02;;
35084;SDS011;21267;51.032;6.998;2023-04-16T11:15:11;25.58;;;22.52;;
35084;SDS011;21267;51.032;6.998;2023-04-16T11:17:42;27.58;;;22.20;;
35084;SDS011;21267;51.032;6.998;2023-04-16T11:22:49;25.52;;;22.05;;
35084;SDS011;21267;51.032;6.998;2023-04-16T11:25:21;23.83;;;19.60;;
35084;SDS011;21267;51.032;6.998;2023-04-16T11:28:00;23.40;;;20.50;;
35084;SDS011;21267;51.032;6.998;2023-04-16T11:30:28;26.27;;;20.65;;
35084;SDS011;21267;51.032;6.998;2023-04-16T11:32:56;25.55;;;22.73;;
35084;SDS011;21267;51.032;6.998;2023-04-16T11:35:23;24.45;;;21.75;;
35084;SDS011;21267;51.032;6.998;2023-04-16T11:37:56;25.20;;;21.38;;
35084;SDS011;21267;51.032;6.998;2023-04-16T11:40:24;25.67;;;21.40;;
35084;SDS011;21267;51.032;6.998;2023-04-16T11:42:55;24.52;;;22.02;;
35084;SDS011;21267;51.032;6.998;2023-04-16T11:45:27;25.33;;;22.45;;
35084;SDS011;21267;51.032;6.998;2023-04-16T11:47:54;23.67;;;21.20;;
35084;SDS011;21267;51.032;6.998;2023-04-16T11:50:24;25.95;;;22.15;;
35084;SDS011;21267;51.032;6.998;2023-04-16T11:52:57;25.27;;;21.42;;
35084;SDS011;21267;51.032;6.998;2023-04-16T11:55:29;25.60;;;22.45;;
35084;SDS011;21267;51.032;6.998;2023-04-16T11:57:56;25.50;;;22.63;;
35084;SDS011;21267;51.032;6.998;2023-04-16T12:00:23;25.27;;;21.40;;
35084;SDS011;21267;51.032;6.998;2023-04-16T12:02:52;25.02;;;21.75;;
35084;SDS011;21267;51.032;6.998;2023-04-16T12:05:37;24.17;;;21.58;;
35084;SDS011;21267;51.032;6.998;2023-04-16T12:08:28;24.85;;;20.85;;
35084;SDS011;21267;51.032;6.998;2023-04-16T12:10:58;23.10;;;20.70;;
35084;SDS011;21267;51.032;6.998;2023-04-16T12:13:28;23.13;;;20.73;;
35084;SDS011;21267;51.032;6.998;2023-04-16T12:15:55;20.52;;;18.52;;
35084;SDS011;21267;51.032;6.998;2023-04-16T12:18:23;20.95;;;18.85;;
35084;SDS011;21267;51.032;6.998;2023-04-16T12:21:07;21.92;;;19.45;;
35084;SDS011;21267;51.032;6.998;2023-04-16T12:23:33;20.25;;;18.25;;
35084;SDS011;21267;51.032;6.998;2023-04-16T12:26:08;20.35;;;17.98;;
35084;SDS011;21267;51.032;6.998;2023-04-16T12:28:37;18.48;;;16.58;;
35084;SDS011;21267;51.032;6.998;2023-04-16T12:31:19;17.98;;;16.02;;
35084;SDS011;21267;51.032;6.998;2023-04-16T12:34:16;17.52;;;14.95;;
35084;SDS011;21267;51.032;6.998;2023-04-16T12:36:43;17.42;;;14.88;;
35084;SDS011;21267;51.032;6.998;2023-04-16T12:39:26;16.67;;;14.88;;
35084;SDS011;21267;51.032;6.998;2023-04-16T12:41:54;19.27;;;16.30;;
35084;SDS011;21267;51.032;6.998;2023-04-16T12:44:21;17.25;;;15.55;;
35084;SDS011;21267;51.032;6.998;2023-04-16T12:49:15;15.63;;;14.00;;
35084;SDS011;21267;51.032;6.998;2023-04-16T12:51:42;16.27;;;14.57;;
35084;SDS011;21267;51.032;6.998;2023-04-16T12:54:22;16.25;;;14.65;;
35084;SDS011;21267;51.032;6.998;2023-04-16T12:56:49;15.77;;;13.93;;
35084;SDS011;21267;51.032;6.998;2023-04-16T12:59:33;17.08;;;14.20;;
35084;SDS011;21267;51.032;6.998;2023-04-16T13:02:00;14.77;;;13.27;;
35084;SDS011;21267;51.032;6.998;2023-04-16T13:04:28;15.43;;;13.88;;
35084;SDS011;21267;51.032;6.998;2023-04-16T13:07:08;16.80;;;14.80;;
35084;SDS011;21267;51.032;6.998;2023-04-16T13:09:36;17.65;;;15.75;;
35084;SDS011;21267;51.032;6.998;2023-04-16T13:12:08;18.52;;;16.67;;
35084;SDS011;21267;51.032;6.998;2023-04-16T13:14:41;18.48;;;16.40;;
35084;SDS011;21267;51.032;6.998;2023-04-16T13:17:22;19.05;;;17.10;;
35084;SDS011;21267;51.032;6.998;2023-04-16T13:19:48;17.77;;;15.93;;
35084;SDS011;21267;51.032;6.998;2023-04-16T13:22:16;18.52;;;16.60;;
35084;SDS011;21267;51.032;6.998;2023-04-16T13:25:03;18.80;;;16.20;;
35084;SDS011;21267;51.032;6.998;2023-04-16T13:27:44;18.30;;;15.77;;
35084;SDS011;21267;51.032;6.998;2023-04-16T13:30:11;17.17;;;15.43;;
35084;SDS011;21267;51.032;6.998;2023-04-16T13:32:38;17.97;;;16.07;;
35084;SDS011;21267;51.032;6.998;2023-04-16T13:35:12;18.63;;;16.70;;
35084;SDS011;21267;51.032;6.998;2023-04-16T13:37:39;19.75;;;17.52;;
35084;SDS011;21267;51.032;6.998;2023-04-16T13:40:06;19.77;;;17.75;;
35084;SDS011;21267;51.032;6.998;2023-04-16T13:42:33;19.15;;;17.05;;
35084;SDS011;21267;51.032;6.998;2023-04-16T13:45:12;17.52;;;15.82;;
35084;SDS011;21267;51.032;6.998;2023-04-16T13:47:39;18.67;;;15.95;;
35084;SDS011;21267;51.032;6.998;2023-04-16T13:50:21;19.05;;;15.48;;
35084;SDS011;21267;51.032;6.998;2023-04-16T13:52:48;17.20;;;14.80;;
35084;SDS011;21267;51.032;6.998;2023-04-16T13:55:15;16.88;;;15.18;;
35084;SDS011;21267;51.032;6.998;2023-04-16T13:57:45;16.75;;;15.18;;
35084;SDS011;21267;51.032;6.998;2023-04-16T14:00:16;17.55;;;15.80;;
35084;SDS011;21267;51.032;6.998;2023-04-16T14:02:45;18.48;;;16.65;;
35084;SDS011;21267;51.032;6.998;2023-04-16T14:05:14;18.15;;;16.30;;
35084;SDS011;21267;51.032;6.998;2023-04-16T14:07:54;18.73;;;16.73;;
35084;SDS011;21267;51.032;6.998;2023-04-16T14:10:21;18.30;;;16.40;;
35084;SDS011;21267;51.032;6.998;2023-04-16T14:13:02;18.45;;;16.15;;
35084;SDS011;21267;51.032;6.998;2023-04-16T14:15:28;19.35;;;17.35;;
35084;SDS011;21267;51.032;6.998;2023-04-16T14:18:09;19.02;;;16.85;;
35084;SDS011;21267;51.032;6.998;2023-04-16T14:20:36;19.60;;;16.77;;
35084;SDS011;21267;51.032;6.998;2023-04-16T14:23:05;19.52;;;17.42;;
35084;SDS011;21267;51.032;6.998;2023-04-16T14:25:32;19.25;;;16.88;;
35084;SDS011;21267;51.032;6.998;2023-04-16T14:27:59;18.52;;;16.52;;
35084;SDS011;21267;51.032;6.998;2023-04-16T14:30:40;20.35;;;16.77;;
35084;SDS011;21267;51.032;6.998;2023-04-16T14:33:06;19.67;;;15.93;;
35084;SDS011;21267;51.032;6.998;2023-04-16T14:35:33;18.30;;;16.15;;
35084;SDS011;21267;51.032;6.998;2023-04-16T14:38:00;18.65;;;16.75;;
35084;SDS011;21267;51.032;6.998;2023-04-16T14:40:27;16.50;;;14.80;;
35084;SDS011;21267;51.032;6.998;2023-04-16T14:42:54;16.13;;;14.52;;
35084;SDS011;21267;51.032;6.998;2023-04-16T14:45:34;17.67;;;15.90;;
35084;SDS011;21267;51.032;6.998;2023-04-16T14:48:04;17.17;;;15.32;;
35084;SDS011;21267;51.032;6.998;2023-04-16T14:50:45;16.38;;;14.63;;
35084;SDS011;21267;51.032;6.998;2023-04-16T14:53:11;17.77;;;16.00;;